Impacts TAF Board INFO
FOR SITUATIONAL AWARENESS. NOT TO BE USED FOR FLIGHT PLANNING PURPOSES.
IDs:

KATL - Atlanta/Hartsfield-J, GA, US

Issued at 1933 UTC 23 Jan 2017
Updated at 2056 UTC 23 Jan 2017
Potential Impact None Slight Moderate High
Time2052Z 23/21Z 23/22Z 23/23Z 24/00Z 24/01Z 24/02Z 24/03Z 24/04Z 24/05Z 24/06Z 24/07Z 24/08Z 24/09Z
Type OBS PRVL PRVL PRVL PRVL
  [TEMP]  
PRVL
  [TEMP]  
PRVL PRVL PRVL PRVL PRVL PRVL PRVL PRVL
VIS 10 >6 >6 >6 >6 >6 >6 >6 >6 >6 >6 >6 >6 >6
CIG 27 25 25 25 25
  [25]  
25
  [25]  
-- -- -- -- -- -- -- --
Cover BKN OVC OVC OVC OVC
  [SCT]  
OVC
  [SCT]  
SCT SCT SCT SCT SKC SKC SKC SKC
FltCat MVFR MVFR MVFR MVFR MVFR
  [MVFR]  
MVFR
  [MVFR]  
VFR VFR VFR VFR VFR VFR VFR VFR
WX -- -- -- -- --
  [--]  
--
  [--]  
-- -- -- -- -- -- -- --
WDir 320 310 310 310 310
[310]
310
[310]
310 310 310 310 310 310 310 310
WSpd 16 20 20 20 20
  [20]  
20
  [20]  
15 15 15 15 12 12 12 12
WGst 22 31 31 31 31
  [31]  
31
  [31]  
25 25 25 25 -- -- -- --

Raw TAF
KATL 231933Z 2320/2424 31020G31KT P6SM OVC025
  TEMPO 2400/2402 SCT025
  FM240200 31015G25KT P6SM SCT025
  FM240600 31012KT P6SM SKC
  FM241400 29012G18KT P6SM SKC


Raw METAR
KATL 232052Z 32016G22KT 10SM BKN027 12/08 A2949 RMK AO2 PK WND 29029/1958 SLP985 T01220078 51020
KATL 231952Z 31020G26KT 10SM OVC020 12/08 A2947 RMK AO2 PK WND 31031/1907 SLP978 T01170083
KATL 231852Z 30019G30KT 10SM OVC023 12/08 A2945 RMK AO2 PK WND 31030/1756 SLP972 T01220083
KATL 231752Z 30022G29KT 10SM BKN020 BKN030 OVC040 13/09 A2943 RMK AO2 PK WND 31030/1704 SLP965 60000 T01280094 10133 20094 51024

METAR Board
Radar Display
Forecast Discussion

FOR SITUATIONAL AWARENESS. NOT TO BE USED FOR FLIGHT PLANNING PURPOSES.

Page loaded:  20:56 UTC  |   12:56 PM Pacific  |   01:56 PM Mountain  |   02:56 PM Central  |   03:56 PM Eastern

 

ADVISORIES

FORECASTS

FORECASTS

OBSERVATIONS

USER TOOLS

ABOUT US